Time;durP1;ratioP1;P1;durP2;ratioP2;P2;SDS_P1;SDS_P2;PMS_P1;PMS_P2;Temp;Humidity;BMP_temperature;BMP_pressure;BME280_temperature;BME280_humidity;BME280_pressure;Samples;Min_cycle;Max_cycle;Signal;HPM_P1;HPM_P2
2023/02/22 00:02:27;;;;;;;2.63;2.53;;;;;;;;;;5019141;28;20413;-85
2023/02/22 00:04:54;;;;;;;1.83;1.73;;;;;;;;;;5019124;28;20052;-86
2023/02/22 00:07:22;;;;;;;3.13;2.90;;;;;;;;;;5023864;28;20103;-87
2023/02/22 00:09:50;;;;;;;3.63;3.42;;;;;;;;;;5038776;28;20144;-86
2023/02/22 00:12:16;;;;;;;0.95;0.93;;;;;;;;;;5031883;28;20050;-85
2023/02/22 00:14:43;;;;;;;1.23;1.20;;;;;;;;;;5018721;28;20065;-86
2023/02/22 00:17:12;;;;;;;1.40;1.30;;;;;;;;;;5019279;28;20038;-86
2023/02/22 00:19:38;;;;;;;2.30;2.05;;;;;;;;;;5018624;28;20476;-86
2023/02/22 00:22:06;;;;;;;1.85;1.75;;;;;;;;;;5019285;28;20112;-85
2023/02/22 00:24:34;;;;;;;2.25;2.15;;;;;;;;;;5019067;28;20056;-86
2023/02/22 00:27:03;;;;;;;2.83;2.42;;;;;;;;;;5025287;28;20069;-86
2023/02/22 00:29:29;;;;;;;1.70;1.60;;;;;;;;;;5019133;28;20140;-86
2023/02/22 00:31:56;;;;;;;2.22;2.10;;;;;;;;;;5022085;28;20050;-86
2023/02/22 00:34:23;;;;;;;1.40;1.30;;;;;;;;;;5039040;28;20480;-87
2023/02/22 00:36:50;;;;;;;2.88;2.70;;;;;;;;;;5037193;28;20046;-87
2023/02/22 00:39:16;;;;;;;1.48;1.45;;;;;;;;;;5018905;28;20053;-86
2023/02/22 00:41:43;;;;;;;1.45;1.35;;;;;;;;;;5019259;28;20127;-86
2023/02/22 00:44:11;;;;;;;1.88;1.70;;;;;;;;;;5034793;28;20111;-86
2023/02/22 00:46:38;;;;;;;1.42;1.33;;;;;;;;;;5038448;28;20045;-86
2023/02/22 00:49:04;;;;;;;3.33;3.20;;;;;;;;;;5018540;28;20117;-87
2023/02/22 00:51:32;;;;;;;3.47;1.75;;;;;;;;;;5019144;28;20136;-87
2023/02/22 00:53:59;;;;;;;1.05;1.05;;;;;;;;;;5037388;28;20061;-86
2023/02/22 00:56:25;;;;;;;1.95;1.83;;;;;;;;;;5038369;28;20042;-86
2023/02/22 00:58:52;;;;;;;3.15;2.95;;;;;;;;;;5020670;28;20056;-87
2023/02/22 01:01:21;;;;;;;2.40;2.30;;;;;;;;;;5021025;28;20049;-87
2023/02/22 01:03:47;;;;;;;3.17;2.95;;;;;;;;;;5018708;28;20049;-86
2023/02/22 01:06:14;;;;;;;1.60;1.50;;;;;;;;;;5018658;28;20462;-86
2023/02/22 01:08:43;;;;;;;2.22;2.13;;;;;;;;;;5033518;28;20096;-86
2023/02/22 01:11:10;;;;;;;2.60;2.50;;;;;;;;;;5038267;28;20072;-86
2023/02/22 01:13:37;;;;;;;1.83;1.73;;;;;;;;;;5034256;28;20095;-86
2023/02/22 01:16:07;;;;;;;2.25;2.15;;;;;;;;;;5035519;28;20064;-86
2023/02/22 01:18:35;;;;;;;1.88;1.77;;;;;;;;;;5030091;28;20399;-86
2023/02/22 01:21:02;;;;;;;1.52;1.48;;;;;;;;;;5035042;28;20136;-86
2023/02/22 01:23:28;;;;;;;1.02;0.98;;;;;;;;;;5022386;28;20061;-87
2023/02/22 01:25:55;;;;;;;1.92;1.83;;;;;;;;;;5015228;28;20045;-86
2023/02/22 01:28:22;;;;;;;2.63;1.25;;;;;;;;;;5015262;28;20069;-85
2023/02/22 01:30:48;;;;;;;2.55;2.35;;;;;;;;;;5014900;28;20152;-85
2023/02/22 01:33:15;;;;;;;2.65;2.55;;;;;;;;;;5024797;28;20119;-86
2023/02/22 01:35:45;;;;;;;2.67;1.83;;;;;;;;;;5032241;28;20446;-86
2023/02/22 01:38:12;;;;;;;1.77;1.67;;;;;;;;;;5034060;28;20160;-85
2023/02/22 01:40:40;;;;;;;3.95;3.65;;;;;;;;;;5034567;28;20050;-86
2023/02/22 01:43:15;;;;;;;2.28;2.17;;;;;;;;;;5034439;28;20041;-85
2023/02/22 01:45:47;;;;;;;2.55;2.40;;;;;;;;;;5034508;28;20152;-86
2023/02/22 01:48:16;;;;;;;1.98;1.65;;;;;;;;;;5034713;28;20053;-86
2023/02/22 01:50:47;;;;;;;1.02;1.02;;;;;;;;;;5034603;28;20050;-86
2023/02/22 01:53:14;;;;;;;1.40;1.30;;;;;;;;;;5021743;28;20089;-86
2023/02/22 01:55:42;;;;;;;1.60;1.50;;;;;;;;;;5014813;28;20049;-86
2023/02/22 01:58:09;;;;;;;2.35;2.25;;;;;;;;;;5014913;28;20088;-87
2023/02/22 02:00:36;;;;;;;3.00;2.80;;;;;;;;;;5014735;28;20108;-87
2023/02/22 02:03:05;;;;;;;2.10;2.00;;;;;;;;;;5014415;28;20049;-87
2023/02/22 02:05:33;;;;;;;2.03;1.92;;;;;;;;;;5014653;28;20132;-87
2023/02/22 02:08:05;;;;;;;1.92;1.83;;;;;;;;;;5018414;28;20049;-87
2023/02/22 02:10:33;;;;;;;1.50;1.45;;;;;;;;;;5014341;28;20049;-87
2023/02/22 02:13:02;;;;;;;3.92;3.72;;;;;;;;;;5014649;28;20046;-87
2023/02/22 02:15:30;;;;;;;2.17;1.55;;;;;;;;;;5014447;28;20050;-87
2023/02/22 02:17:59;;;;;;;1.80;1.70;;;;;;;;;;5019586;28;20068;-87
2023/02/22 02:20:28;;;;;;;1.75;1.65;;;;;;;;;;5034432;28;20057;-87
2023/02/22 02:22:59;;;;;;;1.33;1.30;;;;;;;;;;5030290;28;20499;-87
2023/02/22 02:25:43;;;;;;;1.95;1.85;;;;;;;;;;5030315;28;20053;-87
2023/02/22 02:28:23;;;;;;;2.83;2.67;;;;;;;;;;5034022;28;20049;-87
2023/02/22 02:31:02;;;;;;;3.08;2.88;;;;;;;;;;5034263;28;20045;-87
2023/02/22 02:33:32;;;;;;;2.03;1.92;;;;;;;;;;5034231;28;20057;-87
2023/02/22 02:36:01;;;;;;;2.45;2.35;;;;;;;;;;5033718;28;20495;-87
2023/02/22 02:38:32;;;;;;;1.38;1.25;;;;;;;;;;5033548;28;20049;-88
2023/02/22 02:41:03;;;;;;;2.83;2.63;;;;;;;;;;5030763;28;20049;-88
2023/02/22 02:43:31;;;;;;;2.70;2.38;;;;;;;;;;5025277;28;20053;-88
2023/02/22 02:46:01;;;;;;;2.97;2.75;;;;;;;;;;5014108;28;20049;-88
2023/02/22 02:48:28;;;;;;;2.05;1.95;;;;;;;;;;5014135;28;20408;-88
2023/02/22 02:50:58;;;;;;;2.38;2.28;;;;;;;;;;5014381;28;20060;-87
2023/02/22 02:53:27;;;;;;;1.60;1.50;;;;;;;;;;5020682;28;20099;-86
2023/02/22 02:55:53;;;;;;;1.88;1.77;;;;;;;;;;5033248;28;20053;-87
2023/02/22 02:58:22;;;;;;;5.10;4.35;;;;;;;;;;5026403;28;20045;-86
2023/02/22 03:00:51;;;;;;;0.98;0.98;;;;;;;;;;5032141;28;20104;-86
2023/02/22 03:03:41;;;;;;;2.80;2.70;;;;;;;;;;5027959;28;20045;-86
2023/02/22 03:06:16;;;;;;;1.80;1.70;;;;;;;;;;5013562;28;20566;-87
2023/02/22 03:08:44;;;;;;;1.90;1.80;;;;;;;;;;5013710;28;20462;-86
2023/02/22 03:11:14;;;;;;;1.98;1.88;;;;;;;;;;5013399;28;20053;-86
2023/02/22 03:13:45;;;;;;;1.92;1.83;;;;;;;;;;5021641;28;20128;-87
2023/02/22 03:16:15;;;;;;;2.65;2.47;;;;;;;;;;5034312;28;20055;-87
2023/02/22 03:18:44;;;;;;;1.90;1.73;;;;;;;;;;5037061;28;20108;-88
2023/02/22 03:21:17;;;;;;;1.52;1.33;;;;;;;;;;5013938;28;20491;-87
2023/02/22 03:23:46;;;;;;;2.20;2.10;;;;;;;;;;5013263;28;20136;-86
2023/02/22 03:26:14;;;;;;;1.40;1.40;;;;;;;;;;5013140;28;20107;-87
2023/02/22 03:28:42;;;;;;;0.98;0.98;;;;;;;;;;5013323;28;20623;-87
2023/02/22 03:31:12;;;;;;;2.13;2.03;;;;;;;;;;5013014;28;20112;-87
2023/02/22 03:33:41;;;;;;;2.40;2.30;;;;;;;;;;5022046;28;20045;-87
2023/02/22 03:36:11;;;;;;;1.98;1.88;;;;;;;;;;5012859;28;20053;-87
2023/02/22 03:38:39;;;;;;;1.48;1.38;;;;;;;;;;5013169;28;20096;-87
2023/02/22 03:41:08;;;;;;;2.08;1.98;;;;;;;;;;5013033;28;20050;-86
2023/02/22 03:43:37;;;;;;;2.33;2.22;;;;;;;;;;5018483;28;20470;-86
2023/02/22 03:46:06;;;;;;;4.30;4.10;;;;;;;;;;5033029;28;20065;-87
2023/02/22 03:48:36;;;;;;;1.27;1.23;;;;;;;;;;5033041;28;20053;-87
2023/02/22 03:51:03;;;;;;;1.80;1.67;;;;;;;;;;5019006;28;20077;-87
2023/02/22 03:53:30;;;;;;;1.55;1.50;;;;;;;;;;5013215;28;20124;-87
2023/02/22 03:55:59;;;;;;;1.13;1.10;;;;;;;;;;5013018;28;20046;-87
2023/02/22 03:58:26;;;;;;;2.10;1.98;;;;;;;;;;5016474;28;20103;-87
2023/02/22 04:00:53;;;;;;;2.85;2.65;;;;;;;;;;5033100;28;20052;-87
2023/02/22 04:03:20;;;;;;;1.80;1.70;;;;;;;;;;5032289;28;20054;-87
2023/02/22 04:05:46;;;;;;;1.60;1.50;;;;;;;;;;5032586;28;20111;-87
2023/02/22 04:08:13;;;;;;;2.00;1.90;;;;;;;;;;5028647;28;20049;-87
2023/02/22 04:10:39;;;;;;;2.10;1.90;;;;;;;;;;5012609;28;20050;-87
2023/02/22 04:13:07;;;;;;;1.42;1.35;;;;;;;;;;5012575;28;20053;-87
2023/02/22 04:15:34;;;;;;;1.83;1.73;;;;;;;;;;5032359;28;20069;-87
2023/02/22 04:18:00;;;;;;;1.48;1.38;;;;;;;;;;5032432;28;20111;-87
2023/02/22 04:20:27;;;;;;;2.80;2.47;;;;;;;;;;5032015;28;20392;-86
2023/02/22 04:22:54;;;;;;;1.55;1.50;;;;;;;;;;5032543;28;20045;-86
2023/02/22 04:25:21;;;;;;;3.67;3.45;;;;;;;;;;5027624;28;20499;-86
2023/02/22 04:27:48;;;;;;;1.15;1.15;;;;;;;;;;5032584;28;20081;-86
2023/02/22 04:30:17;;;;;;;3.45;1.98;;;;;;;;;;5015613;28;20061;-87
2023/02/22 04:32:44;;;;;;;1.15;1.13;;;;;;;;;;5012789;28;20513;-86
2023/02/22 04:35:10;;;;;;;2.70;2.38;;;;;;;;;;5012518;28;20045;-86
2023/02/22 04:37:37;;;;;;;1.98;1.55;;;;;;;;;;5012526;28;20539;-86
2023/02/22 04:40:06;;;;;;;4.13;2.60;;;;;;;;;;5014300;28;20064;-86
2023/02/22 04:42:33;;;;;;;2.20;2.10;;;;;;;;;;5032196;28;20064;-85
2023/02/22 04:44:59;;;;;;;2.40;2.30;;;;;;;;;;5032721;28;20057;-87
2023/02/22 04:47:27;;;;;;;1.15;0.68;;;;;;;;;;5033928;28;20041;-87
2023/02/22 04:49:54;;;;;;;0.98;0.98;;;;;;;;;;5037394;28;20107;-87
2023/02/22 04:52:21;;;;;;;2.28;2.17;;;;;;;;;;5040719;28;20053;-87
2023/02/22 04:54:47;;;;;;;0.95;0.95;;;;;;;;;;5034238;28;20868;-86
2023/02/22 04:57:14;;;;;;;3.55;3.35;;;;;;;;;;5036861;28;20076;-86
2023/02/22 04:59:40;;;;;;;1.85;1.75;;;;;;;;;;5036303;28;20521;-86
2023/02/22 05:02:07;;;;;;;2.58;2.38;;;;;;;;;;5028141;28;20054;-87
2023/02/22 05:04:37;;;;;;;2.47;2.35;;;;;;;;;;5028148;28;20573;-88
2023/02/22 05:07:04;;;;;;;5.53;1.40;;;;;;;;;;5025042;28;20703;-88
2023/02/22 05:09:30;;;;;;;4.57;4.38;;;;;;;;;;5017661;28;20216;-87
2023/02/22 05:11:57;;;;;;;3.03;2.80;;;;;;;;;;5016597;28;20099;-88
2023/02/22 05:14:25;;;;;;;1.08;1.08;;;;;;;;;;5036440;28;20542;-87
2023/02/22 05:16:52;;;;;;;0.77;0.77;;;;;;;;;;5036365;28;20056;-87
2023/02/22 05:19:18;;;;;;;1.95;1.52;;;;;;;;;;5036555;28;20084;-87
2023/02/22 05:21:46;;;;;;;1.08;1.08;;;;;;;;;;5036266;28;20099;-87
2023/02/22 05:24:13;;;;;;;1.42;1.38;;;;;;;;;;5030615;28;20046;-87
2023/02/22 05:26:39;;;;;;;1.58;1.48;;;;;;;;;;5015841;28;20060;-87
2023/02/22 05:29:06;;;;;;;3.13;3.00;;;;;;;;;;5015461;28;20046;-86
2023/02/22 05:31:32;;;;;;;3.42;3.22;;;;;;;;;;5033456;28;20049;-87
2023/02/22 05:33:59;;;;;;;1.25;1.17;;;;;;;;;;5035214;28;20441;-87
2023/02/22 05:36:26;;;;;;;2.78;2.60;;;;;;;;;;5035053;28;20049;-87
2023/02/22 05:38:54;;;;;;;1.17;1.15;;;;;;;;;;5034996;28;20052;-87
2023/02/22 05:41:21;;;;;;;3.53;2.00;;;;;;;;;;5035282;28;20045;-87
2023/02/22 05:43:47;;;;;;;5.40;3.83;;;;;;;;;;5035080;28;20053;-87
2023/02/22 05:46:14;;;;;;;1.50;1.33;;;;;;;;;;5031789;28;20099;-87
2023/02/22 05:48:41;;;;;;;3.35;3.17;;;;;;;;;;5015270;28;20104;-87
2023/02/22 05:51:08;;;;;;;2.33;2.22;;;;;;;;;;5015382;28;20077;-87
2023/02/22 05:53:35;;;;;;;2.53;1.70;;;;;;;;;;5015669;28;20392;-86
2023/02/22 05:56:03;;;;;;;2.83;2.67;;;;;;;;;;5034347;28;20055;-87
2023/02/22 05:58:31;;;;;;;1.00;0.95;;;;;;;;;;5034440;28;20060;-86
2023/02/22 06:00:58;;;;;;;2.03;1.92;;;;;;;;;;5016902;28;20104;-87
2023/02/22 06:03:24;;;;;;;2.45;2.25;;;;;;;;;;5015785;28;20158;-87
2023/02/22 06:05:51;;;;;;;2.05;1.95;;;;;;;;;;5017508;28;20045;-86
2023/02/22 06:08:17;;;;;;;2.22;2.08;;;;;;;;;;5014236;28;20100;-86
2023/02/22 06:10:44;;;;;;;1.83;1.73;;;;;;;;;;5014485;28;20144;-86
2023/02/22 06:13:12;;;;;;;1.90;1.80;;;;;;;;;;5014561;28;20052;-87
2023/02/22 06:15:38;;;;;;;1.17;1.17;;;;;;;;;;5014504;28;20733;-87
2023/02/22 06:18:05;;;;;;;1.77;1.67;;;;;;;;;;5015144;28;20057;-87
2023/02/22 06:20:32;;;;;;;3.28;2.38;;;;;;;;;;5016299;28;20049;-88
2023/02/22 06:22:58;;;;;;;2.65;2.55;;;;;;;;;;5015559;28;20050;-88
2023/02/22 06:25:26;;;;;;;4.03;1.52;;;;;;;;;;5014567;28;20089;-88
2023/02/22 06:27:52;;;;;;;3.85;3.63;;;;;;;;;;5014293;28;20045;-87
2023/02/22 06:30:20;;;;;;;2.42;2.33;;;;;;;;;;5014539;28;20058;-87
2023/02/22 06:32:48;;;;;;;2.15;2.05;;;;;;;;;;5014448;28;20046;-88
2023/02/22 06:35:15;;;;;;;11.18;3.10;;;;;;;;;;5014608;28;20565;-88
2023/02/22 06:37:41;;;;;;;3.53;3.30;;;;;;;;;;5017626;28;20564;-89
2023/02/22 06:40:10;;;;;;;4.05;3.83;;;;;;;;;;5023130;28;20049;-89
2023/02/22 06:42:36;;;;;;;2.45;2.33;;;;;;;;;;5034346;28;20046;-88
2023/02/22 06:45:03;;;;;;;5.57;4.35;;;;;;;;;;5033620;28;20127;-87
2023/02/22 06:47:30;;;;;;;3.63;3.42;;;;;;;;;;5033705;28;20049;-87
2023/02/22 06:49:58;;;;;;;2.95;2.75;;;;;;;;;;5025475;28;20053;-87
2023/02/22 06:52:25;;;;;;;3.30;3.10;;;;;;;;;;5033467;28;20107;-87
2023/02/22 06:54:52;;;;;;;4.95;3.97;;;;;;;;;;5028250;28;20132;-87
2023/02/22 06:57:18;;;;;;;4.38;4.05;;;;;;;;;;5032947;28;20111;-87
2023/02/22 06:59:45;;;;;;;4.10;3.70;;;;;;;;;;5028165;28;20558;-87
2023/02/22 07:02:12;;;;;;;4.22;4.03;;;;;;;;;;5013411;28;20050;-87
2023/02/22 07:04:38;;;;;;;4.75;4.45;;;;;;;;;;5013058;28;20132;-87
2023/02/22 07:07:06;;;;;;;4.05;2.72;;;;;;;;;;5013328;28;20054;-86
2023/02/22 07:09:33;;;;;;;5.85;3.65;;;;;;;;;;5013187;28;20046;-87
2023/02/22 07:11:59;;;;;;;5.50;5.03;;;;;;;;;;5022280;28;20045;-87
2023/02/22 07:14:26;;;;;;;5.43;5.03;;;;;;;;;;5023766;28;20049;-87
2023/02/22 07:16:52;;;;;;;4.53;4.30;;;;;;;;;;5017994;28;20096;-87
2023/02/22 07:19:19;;;;;;;4.20;3.75;;;;;;;;;;5032209;28;20061;-87
2023/02/22 07:21:46;;;;;;;3.40;3.17;;;;;;;;;;5032897;28;20131;-87
2023/02/22 07:24:14;;;;;;;4.85;4.13;;;;;;;;;;5032817;28;20049;-87
2023/02/22 07:26:41;;;;;;;4.22;4.03;;;;;;;;;;5033090;28;20050;-87
2023/02/22 07:29:10;;;;;;;5.40;4.57;;;;;;;;;;5040823;28;20049;-87
2023/02/22 07:31:36;;;;;;;4.57;4.03;;;;;;;;;;5026867;28;20541;-88
2023/02/22 07:34:03;;;;;;;5.10;4.70;;;;;;;;;;5033010;28;20061;-87
2023/02/22 07:36:29;;;;;;;6.47;5.80;;;;;;;;;;5032259;28;20057;-88
2023/02/22 07:38:56;;;;;;;4.93;4.53;;;;;;;;;;5052823;28;20053;-87
2023/02/22 07:41:24;;;;;;;3.47;3.17;;;;;;;;;;5019961;28;20045;-87
2023/02/22 07:43:51;;;;;;;5.47;4.97;;;;;;;;;;5019451;28;20053;-86
2023/02/22 07:46:17;;;;;;;5.95;5.55;;;;;;;;;;5032650;28;20491;-88
2023/02/22 07:48:44;;;;;;;4.05;3.80;;;;;;;;;;5048322;28;20049;-88
2023/02/22 07:51:10;;;;;;;6.00;5.47;;;;;;;;;;5034450;28;20102;-88
2023/02/22 07:53:37;;;;;;;3.72;3.40;;;;;;;;;;5040694;28;20512;-88
2023/02/22 07:56:07;;;;;;;4.22;3.85;;;;;;;;;;5022520;28;20050;-88
2023/02/22 07:58:35;;;;;;;6.10;5.60;;;;;;;;;;5048056;28;20056;-88
2023/02/22 08:01:02;;;;;;;6.13;5.63;;;;;;;;;;5032922;28;20045;-88
2023/02/22 08:03:30;;;;;;;3.88;3.58;;;;;;;;;;5042122;28;20123;-88
2023/02/22 08:05:59;;;;;;;4.60;4.30;;;;;;;;;;5032397;28;20135;-88
2023/02/22 08:08:26;;;;;;;5.95;5.45;;;;;;;;;;5048592;28;20106;-89
2023/02/22 08:10:53;;;;;;;6.28;5.82;;;;;;;;;;5031650;28;20522;-88
2023/02/22 08:13:20;;;;;;;4.47;4.10;;;;;;;;;;5031947;28;20058;-88
2023/02/22 08:15:50;;;;;;;5.95;5.55;;;;;;;;;;5031415;28;20517;-88
2023/02/22 08:18:17;;;;;;;4.32;4.03;;;;;;;;;;5032161;28;20049;-88
2023/02/22 08:20:45;;;;;;;3.63;3.50;;;;;;;;;;5031746;28;20052;-89
2023/02/22 08:23:12;;;;;;;5.18;4.78;;;;;;;;;;5035582;28;20495;-86
2023/02/22 08:25:39;;;;;;;4.82;4.43;;;;;;;;;;5035562;28;20053;-86
2023/02/22 08:28:06;;;;;;;8.02;7.28;;;;;;;;;;5036060;28;20092;-86
2023/02/22 08:30:34;;;;;;;3.17;2.97;;;;;;;;;;5035845;28;20045;-87
2023/02/22 08:33:03;;;;;;;9.40;5.32;;;;;;;;;;5036023;28;20454;-87
2023/02/22 08:35:30;;;;;;;5.22;4.82;;;;;;;;;;5035670;28;20461;-87
2023/02/22 08:37:58;;;;;;;4.57;4.25;;;;;;;;;;5036244;28;20133;-87
2023/02/22 08:40:26;;;;;;;6.13;4.65;;;;;;;;;;5035406;28;20060;-87
2023/02/22 08:42:53;;;;;;;5.32;4.93;;;;;;;;;;5036067;28;20045;-87
2023/02/22 08:45:19;;;;;;;4.80;4.40;;;;;;;;;;5035932;28;20392;-87
2023/02/22 08:47:46;;;;;;;5.18;4.88;;;;;;;;;;5035760;28;20049;-86
2023/02/22 08:50:18;;;;;;;3.58;3.28;;;;;;;;;;5035316;28;20095;-86
2023/02/22 08:52:44;;;;;;;5.38;4.97;;;;;;;;;;5035685;28;20053;-87
2023/02/22 08:55:11;;;;;;;6.57;6.18;;;;;;;;;;5034986;28;20194;-87
2023/02/22 08:57:37;;;;;;;4.57;4.22;;;;;;;;;;5035676;28;20095;-88
2023/02/22 09:00:04;;;;;;;5.43;5.00;;;;;;;;;;5035491;28;20053;-87
2023/02/22 09:02:30;;;;;;;5.43;5.05;;;;;;;;;;5035283;28;20495;-87
2023/02/22 09:04:57;;;;;;;4.50;4.15;;;;;;;;;;5035734;28;20107;-88
2023/02/22 09:07:25;;;;;;;5.80;5.40;;;;;;;;;;5031425;28;21502;-87
2023/02/22 09:09:51;;;;;;;7.78;5.07;;;;;;;;;;5037115;28;20119;-87
2023/02/22 09:12:18;;;;;;;6.00;4.80;;;;;;;;;;5022960;28;20053;-87
2023/02/22 09:14:44;;;;;;;5.82;5.53;;;;;;;;;;5051077;28;20056;-87
2023/02/22 09:17:11;;;;;;;4.60;3.95;;;;;;;;;;5040606;28;20057;-87
2023/02/22 09:19:37;;;;;;;4.10;3.80;;;;;;;;;;5041799;28;20049;-88
2023/02/22 09:22:04;;;;;;;6.85;6.22;;;;;;;;;;5035776;28;20095;-88
2023/02/22 09:24:32;;;;;;;5.75;5.40;;;;;;;;;;5040216;28;20064;-89
2023/02/22 09:26:58;;;;;;;5.10;4.88;;;;;;;;;;5023352;28;20396;-91
2023/02/22 09:29:26;;;;;;;6.22;5.72;;;;;;;;;;5016488;28;20400;-88
2023/02/22 09:31:53;;;;;;;5.93;5.63;;;;;;;;;;5016886;28;20045;-89
2023/02/22 09:34:21;;;;;;;4.88;4.45;;;;;;;;;;5016340;28;20112;-89
2023/02/22 09:36:48;;;;;;;9.60;6.53;;;;;;;;;;5016764;28;20050;-90
2023/02/22 09:39:15;;;;;;;5.90;5.32;;;;;;;;;;5016769;28;20050;-89
2023/02/22 09:41:48;;;;;;;5.00;4.68;;;;;;;;;;5034009;28;20103;-90
2023/02/22 09:44:19;;;;;;;4.78;4.35;;;;;;;;;;5036387;28;20054;-88
2023/02/22 09:46:47;;;;;;;6.22;5.57;;;;;;;;;;5036679;28;20060;-88
2023/02/22 09:49:20;;;;;;;5.30;4.85;;;;;;;;;;5038919;28;20106;-88
2023/02/22 09:51:48;;;;;;;6.30;5.80;;;;;;;;;;5055581;28;20052;-89
2023/02/22 09:54:19;;;;;;;4.53;4.25;;;;;;;;;;5055534;28;20083;-89
2023/02/22 09:56:48;;;;;;;5.85;5.53;;;;;;;;;;5044549;28;20053;-89
2023/02/22 09:59:18;;;;;;;5.50;5.10;;;;;;;;;;5054857;28;20075;-89
2023/02/22 10:01:47;;;;;;;7.18;5.50;;;;;;;;;;5044016;28;20064;-90
2023/02/22 10:04:18;;;;;;;5.65;5.32;;;;;;;;;;5045231;28;20094;-87
2023/02/22 10:06:52;;;;;;;5.20;4.82;;;;;;;;;;5038593;28;20136;-87
2023/02/22 10:09:19;;;;;;;7.50;7.13;;;;;;;;;;5044873;28;20128;-87
2023/02/22 10:11:52;;;;;;;7.38;6.93;;;;;;;;;;5034478;28;20192;-87
2023/02/22 10:14:32;;;;;;;5.38;4.88;;;;;;;;;;5019459;28;20049;-88
2023/02/22 10:17:05;;;;;;;7.18;6.40;;;;;;;;;;5045879;28;20059;-87
2023/02/22 10:19:37;;;;;;;6.57;6.13;;;;;;;;;;5041642;28;20073;-88
2023/02/22 10:22:14;;;;;;;6.18;5.85;;;;;;;;;;5038047;28;20496;-89
2023/02/22 10:24:47;;;;;;;5.10;4.88;;;;;;;;;;5033930;28;20057;-87
2023/02/22 10:27:17;;;;;;;5.20;4.93;;;;;;;;;;5033870;28;20050;-87
2023/02/22 10:29:45;;;;;;;7.45;7.05;;;;;;;;;;5033595;28;20045;-87
2023/02/22 10:32:16;;;;;;;8.07;7.65;;;;;;;;;;5020870;28;20049;-87
2023/02/22 10:34:47;;;;;;;6.40;5.90;;;;;;;;;;5014469;28;20097;-88
2023/02/22 10:37:19;;;;;;;11.07;10.15;;;;;;;;;;5014491;28;20050;-87
2023/02/22 10:39:46;;;;;;;8.20;7.07;;;;;;;;;;5014455;28;20488;-86
2023/02/22 10:42:13;;;;;;;8.70;8.20;;;;;;;;;;5014412;28;20048;-87
2023/02/22 10:44:41;;;;;;;8.98;8.50;;;;;;;;;;5013909;28;20574;-87
2023/02/22 10:47:10;;;;;;;9.63;8.82;;;;;;;;;;5013805;28;20046;-87
2023/02/22 10:49:39;;;;;;;8.88;8.18;;;;;;;;;;5013821;28;20554;-87
2023/02/22 10:52:12;;;;;;;7.35;6.80;;;;;;;;;;5013714;28;20482;-88
2023/02/22 10:54:41;;;;;;;6.80;6.25;;;;;;;;;;5013518;28;20054;-87
2023/02/22 10:57:07;;;;;;;9.77;9.20;;;;;;;;;;5013557;28;20101;-87
2023/02/22 10:59:35;;;;;;;9.70;9.00;;;;;;;;;;5014140;28;20049;-87
2023/02/22 11:02:09;;;;;;;11.65;10.82;;;;;;;;;;5013709;28;20049;-87
2023/02/22 11:04:45;;;;;;;11.43;10.73;;;;;;;;;;5013801;28;20054;-87
2023/02/22 11:07:18;;;;;;;9.73;9.10;;;;;;;;;;5013923;28;20049;-87
2023/02/22 11:09:50;;;;;;;10.27;9.80;;;;;;;;;;5013752;28;20104;-87
2023/02/22 11:12:18;;;;;;;8.15;7.55;;;;;;;;;;5024883;28;20080;-87
2023/02/22 11:14:45;;;;;;;10.38;9.73;;;;;;;;;;5033192;28;20064;-87
2023/02/22 11:17:16;;;;;;;7.60;7.07;;;;;;;;;;5032910;28;20053;-87
2023/02/22 11:19:46;;;;;;;8.93;8.40;;;;;;;;;;5033427;28;20107;-87
2023/02/22 11:22:14;;;;;;;9.20;8.43;;;;;;;;;;5022437;28;20100;-87
2023/02/22 11:24:45;;;;;;;8.18;6.72;;;;;;;;;;5013366;28;20142;-87
2023/02/22 11:27:22;;;;;;;8.45;7.68;;;;;;;;;;5023763;28;20469;-87
2023/02/22 11:29:49;;;;;;;9.70;8.93;;;;;;;;;;5032907;28;20213;-87
2023/02/22 11:32:20;;;;;;;9.57;9.07;;;;;;;;;;5032833;28;20103;-87
2023/02/22 11:34:48;;;;;;;7.72;7.10;;;;;;;;;;5032798;28;20469;-87
2023/02/22 11:37:16;;;;;;;7.55;7.03;;;;;;;;;;5032582;28;20049;-88
2023/02/22 11:39:43;;;;;;;8.93;8.43;;;;;;;;;;5032719;28;20050;-87
2023/02/22 11:42:19;;;;;;;6.75;6.35;;;;;;;;;;5032932;28;20446;-87
2023/02/22 11:44:45;;;;;;;8.63;6.05;;;;;;;;;;5032820;28;20561;-87
2023/02/22 11:47:12;;;;;;;10.13;9.32;;;;;;;;;;5032666;28;20110;-87
2023/02/22 11:49:42;;;;;;;10.60;9.70;;;;;;;;;;5032740;28;20111;-88
2023/02/22 11:52:16;;;;;;;14.15;13.40;;;;;;;;;;5032766;28;20059;-87
2023/02/22 11:55:01;;;;;;;8.55;7.95;;;;;;;;;;5032609;28;20673;-87
2023/02/22 11:57:51;;;;;;;12.73;11.93;;;;;;;;;;5032127;28;20053;-88
2023/02/22 12:00:23;;;;;;;9.10;8.50;;;;;;;;;;5020237;28;20061;-87
2023/02/22 12:02:59;;;;;;;8.48;8.05;;;;;;;;;;5033165;28;20415;-87
2023/02/22 12:05:37;;;;;;;9.43;8.70;;;;;;;;;;5033015;28;20057;-87
2023/02/22 12:08:16;;;;;;;13.15;12.02;;;;;;;;;;5032962;28;20049;-88
2023/02/22 12:10:49;;;;;;;10.65;9.38;;;;;;;;;;5032653;28;20045;-87
2023/02/22 12:13:25;;;;;;;8.88;8.15;;;;;;;;;;5032694;28;20049;-87
2023/02/22 12:15:55;;;;;;;10.82;10.02;;;;;;;;;;5032618;28;20056;-88
2023/02/22 12:18:26;;;;;;;10.00;9.45;;;;;;;;;;5032684;28;20072;-88
2023/02/22 12:20:56;;;;;;;8.60;6.55;;;;;;;;;;5033077;28;20049;-87
2023/02/22 12:23:28;;;;;;;6.07;5.65;;;;;;;;;;5032850;28;20049;-87
2023/02/22 12:25:57;;;;;;;8.43;7.72;;;;;;;;;;5032969;28;20053;-87
2023/02/22 12:28:27;;;;;;;8.80;8.27;;;;;;;;;;5039295;28;20050;-87
2023/02/22 12:31:00;;;;;;;8.57;7.88;;;;;;;;;;5039818;28;20115;-87
2023/02/22 12:33:29;;;;;;;11.35;10.73;;;;;;;;;;5039101;28;20049;-88
2023/02/22 12:35:59;;;;;;;10.60;9.90;;;;;;;;;;5036234;28;20056;-87
2023/02/22 12:38:30;;;;;;;9.85;9.25;;;;;;;;;;5035365;28;20049;-87
2023/02/22 12:40:59;;;;;;;10.68;10.05;;;;;;;;;;5033244;28;20058;-88
2023/02/22 12:43:29;;;;;;;9.45;8.95;;;;;;;;;;5032600;28;20049;-88
2023/02/22 12:46:00;;;;;;;8.98;8.40;;;;;;;;;;5032750;28;20049;-87
2023/02/22 12:48:31;;;;;;;14.13;13.35;;;;;;;;;;5033184;28;20053;-87
2023/02/22 12:51:03;;;;;;;8.10;7.72;;;;;;;;;;5033015;28;20060;-88
2023/02/22 12:53:31;;;;;;;9.30;8.68;;;;;;;;;;5032530;28;20116;-87
2023/02/22 12:56:00;;;;;;;11.98;11.23;;;;;;;;;;5032643;28;20053;-87
2023/02/22 12:58:30;;;;;;;8.68;8.07;;;;;;;;;;5031920;28;20104;-86
2023/02/22 13:00:59;;;;;;;10.07;9.32;;;;;;;;;;5031591;28;20642;-87
2023/02/22 13:03:30;;;;;;;6.90;6.50;;;;;;;;;;5031320;28;20466;-87
2023/02/22 13:06:04;;;;;;;8.13;7.80;;;;;;;;;;5031741;28;20050;-87
2023/02/22 13:08:34;;;;;;;7.78;7.35;;;;;;;;;;5032042;28;20053;-87
2023/02/22 13:11:08;;;;;;;8.88;6.88;;;;;;;;;;5035532;28;20049;-87
2023/02/22 13:13:38;;;;;;;9.88;9.27;;;;;;;;;;5035520;28;20091;-87
2023/02/22 13:16:08;;;;;;;10.88;9.85;;;;;;;;;;5035026;28;20053;-87
2023/02/22 13:18:37;;;;;;;8.40;7.78;;;;;;;;;;5035337;28;20108;-87
2023/02/22 13:21:06;;;;;;;9.50;8.77;;;;;;;;;;5036635;28;20111;-88
2023/02/22 13:23:43;;;;;;;11.65;10.88;;;;;;;;;;5020777;28;20116;-87
2023/02/22 13:26:14;;;;;;;8.90;8.30;;;;;;;;;;5016989;28;20054;-88
2023/02/22 13:28:44;;;;;;;7.05;6.72;;;;;;;;;;5015499;28;20096;-87
2023/02/22 13:31:25;;;;;;;8.23;7.80;;;;;;;;;;5015583;28;20132;-88
2023/02/22 13:34:01;;;;;;;7.45;7.03;;;;;;;;;;5015020;28;20500;-87
2023/02/22 13:36:35;;;;;;;6.75;6.38;;;;;;;;;;5015532;28;20050;-88
2023/02/22 13:39:15;;;;;;;4.45;4.22;;;;;;;;;;5034493;28;20049;-88
2023/02/22 13:41:47;;;;;;;8.27;7.47;;;;;;;;;;5035340;28;20053;-88
2023/02/22 13:44:27;;;;;;;6.93;6.63;;;;;;;;;;5016167;28;20061;-88
2023/02/22 13:47:17;;;;;;;5.97;5.57;;;;;;;;;;5015195;28;20054;-88
2023/02/22 13:50:05;;;;;;;6.50;5.90;;;;;;;;;;4956688;28;20058;-88
2023/02/22 13:52:32;;;;;;;6.85;6.47;;;;;;;;;;4959844;28;20516;-88
2023/02/22 13:55:02;;;;;;;9.95;9.00;;;;;;;;;;4973671;28;20534;-88
2023/02/22 13:57:30;;;;;;;6.22;5.82;;;;;;;;;;4973240;28;20050;-88
2023/02/22 14:00:16;;;;;;;6.43;6.18;;;;;;;;;;4973767;28;20102;-88
2023/02/22 14:02:57;;;;;;;5.38;5.15;;;;;;;;;;4973298;28;20046;-89
2023/02/22 14:05:40;;;;;;;6.72;5.95;;;;;;;;;;4973258;28;20118;-89
2023/02/22 14:08:06;;;;;;;7.50;7.13;;;;;;;;;;4953595;28;20155;-87
2023/02/22 14:10:39;;;;;;;4.65;4.35;;;;;;;;;;4954155;29;20505;-88
2023/02/22 14:13:06;;;;;;;4.95;4.72;;;;;;;;;;4954522;28;20110;-88
2023/02/22 14:15:34;;;;;;;7.38;6.97;;;;;;;;;;4953882;29;20055;-88
2023/02/22 14:18:01;;;;;;;5.75;5.38;;;;;;;;;;4953918;28;20055;-88
2023/02/22 14:20:33;;;;;;;5.97;5.53;;;;;;;;;;4953351;28;20054;-88
2023/02/22 14:23:18;;;;;;;6.75;6.25;;;;;;;;;;4953868;28;20599;-87
2023/02/22 14:25:46;;;;;;;8.27;7.72;;;;;;;;;;4968758;28;20054;-88
2023/02/22 14:28:27;;;;;;;5.28;4.97;;;;;;;;;;5014456;28;20427;-86
2023/02/22 14:31:04;;;;;;;6.93;6.55;;;;;;;;;;5013600;28;20080;-85
2023/02/22 14:33:49;;;;;;;7.07;6.45;;;;;;;;;;5014419;28;20127;-88
2023/02/22 14:36:16;;;;;;;6.07;5.80;;;;;;;;;;5014562;28;20112;-88
2023/02/22 14:38:44;;;;;;;7.68;7.35;;;;;;;;;;5013776;28;20050;-88
2023/02/22 14:41:13;;;;;;;7.38;6.97;;;;;;;;;;5013810;28;20053;-88
2023/02/22 14:43:40;;;;;;;7.40;6.90;;;;;;;;;;5013642;28;20100;-88
2023/02/22 14:46:07;;;;;;;5.88;5.57;;;;;;;;;;5014154;28;20050;-87
2023/02/22 14:48:38;;;;;;;5.03;4.72;;;;;;;;;;5014002;28;20443;-88
2023/02/22 14:51:07;;;;;;;4.28;3.97;;;;;;;;;;5014220;28;20093;-88
2023/02/22 14:53:38;;;;;;;5.50;4.38;;;;;;;;;;5013822;28;20060;-88